Time;durP1;ratioP1;P1;durP2;ratioP2;P2;SDS_P1;SDS_P2;PMS_P1;PMS_P2;Temp;Humidity;BMP_temperature;BMP_pressure;BME280_temperature;BME280_humidity;BME280_pressure;Samples;Min_cycle;Max_cycle;Signal;HPM_P1;HPM_P2
2022/10/06 00:01:02;;;;;;;4.62;0.62;;;;;;;12.01;100.00;100515.55;1737213;79;21888;-48
2022/10/06 00:03:29;;;;;;;2.92;0.60;;;;;;;12.01;100.00;100507.45;1740286;79;21442;-50
2022/10/06 00:06:01;;;;;;;4.33;0.60;;;;;;;12.02;100.00;100505.64;1743452;79;20989;-47
2022/10/06 00:08:29;;;;;;;6.80;1.35;;;;;;;12.04;100.00;100506.46;1740232;79;21010;-48
2022/10/06 00:10:56;;;;;;;1.60;0.70;;;;;;;12.05;100.00;100498.31;1736799;79;21546;-49
2022/10/06 00:13:23;;;;;;;1.92;0.60;;;;;;;12.07;100.00;100503.64;1735394;79;21887;-49
2022/10/06 00:15:51;;;;;;;1.60;0.65;;;;;;;12.08;100.00;100499.50;1739509;79;21570;-47
2022/10/06 00:18:19;;;;;;;2.37;0.53;;;;;;;12.11;100.00;100502.55;1740906;79;21013;-47
2022/10/06 00:20:57;;;;;;;0.78;0.57;;;;;;;12.12;100.00;100501.62;1740856;79;20997;-47
2022/10/06 00:23:24;;;;;;;3.62;0.60;;;;;;;12.10;100.00;100491.35;1743777;79;21015;-47
2022/10/06 00:25:50;;;;;;;1.52;0.55;;;;;;;12.08;100.00;100494.58;1741231;79;21762;-47
2022/10/06 00:28:16;;;;;;;3.58;0.60;;;;;;;12.06;100.00;100499.19;1739431;79;21005;-48
2022/10/06 00:30:44;;;;;;;1.62;0.60;;;;;;;12.02;100.00;100496.20;1742272;79;21084;-48
2022/10/06 00:33:14;;;;;;;1.50;0.50;;;;;;;12.02;100.00;100496.20;1741548;79;21080;-47
2022/10/06 00:35:42;;;;;;;1.20;0.60;;;;;;;12.04;100.00;100498.37;1741808;79;21080;-48
2022/10/06 00:38:11;;;;;;;5.35;0.75;;;;;;;12.07;100.00;100494.20;1743967;79;21844;-49
2022/10/06 00:40:46;;;;;;;2.92;0.65;;;;;;;12.07;100.00;100494.20;1738663;79;21086;-47
2022/10/06 00:43:51;;;;;;;2.83;0.80;;;;;;;12.07;100.00;100499.13;1742364;79;21107;-50
2022/10/06 00:46:25;;;;;;;2.55;0.60;;;;;;;12.08;100.00;100494.11;1739551;79;21491;-48
2022/10/06 00:49:00;;;;;;;1.85;0.55;;;;;;;12.07;100.00;100488.34;1737239;79;21064;-47
2022/10/06 00:51:26;;;;;;;2.85;0.70;;;;;;;12.06;100.00;100498.72;1712761;79;21846;-47
2022/10/06 00:53:52;;;;;;;4.95;0.80;;;;;;;12.03;100.00;100502.88;1738407;79;21058;-48
2022/10/06 00:56:19;;;;;;;1.07;0.50;;;;;;;12.02;100.00;100502.47;1741405;79;22144;-47
2022/10/06 00:58:45;;;;;;;1.42;0.50;;;;;;;12.02;100.00;100494.37;1741850;79;21068;-46
2022/10/06 01:01:11;;;;;;;2.58;0.50;;;;;;;12.02;100.00;100494.84;1734289;79;21206;-47
2022/10/06 01:03:42;;;;;;;3.12;0.60;;;;;;;12.02;100.00;100493.03;1734566;79;21826;-47
2022/10/06 01:06:08;;;;;;;1.55;0.50;;;;;;;12.05;100.00;100485.28;1735923;79;21095;-49
2022/10/06 01:08:36;;;;;;;1.37;0.50;;;;;;;12.05;100.00;100485.28;1737532;79;21353;-48
2022/10/06 01:11:04;;;;;;;1.10;0.70;;;;;;;12.05;100.00;100473.14;1736388;79;22274;-48
2022/10/06 01:13:30;;;;;;;0.75;0.53;;;;;;;12.05;100.00;100473.14;1740075;79;21069;-48
2022/10/06 01:16:09;;;;;;;1.45;0.50;;;;;;;12.07;100.00;100475.31;1735895;79;21857;-48
2022/10/06 01:18:36;;;;;;;3.02;0.60;;;;;;;12.05;100.00;100474.02;1733784;79;21115;-47
2022/10/06 01:21:20;;;;;;;1.15;0.75;;;;;;;12.04;100.00;100469.56;1741738;79;21078;-46
2022/10/06 01:23:48;;;;;;;2.15;0.50;;;;;;;12.02;100.00;100482.23;1737330;79;21036;-46
2022/10/06 01:26:15;;;;;;;2.30;0.40;;;;;;;12.02;100.00;100482.23;1739446;79;21072;-46
2022/10/06 01:28:41;;;;;;;7.25;0.50;;;;;;;12.00;100.00;100480.06;1723903;79;21778;-45
2022/10/06 01:31:08;;;;;;;8.68;0.95;;;;;;;12.02;100.00;100468.75;1743068;79;21085;-46
2022/10/06 01:33:34;;;;;;;1.65;0.50;;;;;;;12.02;100.00;100468.75;1737467;79;21550;-47
2022/10/06 01:36:01;;;;;;;1.80;0.50;;;;;;;12.00;100.00;100468.39;1737333;79;21754;-46
2022/10/06 01:38:28;;;;;;;4.50;0.60;;;;;;;12.00;100.00;100471.97;1738872;79;21029;-45
2022/10/06 01:40:57;;;;;;;3.08;0.50;;;;;;;12.00;100.00;100471.97;1737756;79;21768;-48
2022/10/06 01:43:23;;;;;;;2.22;0.50;;;;;;;12.02;100.00;100478.19;1723368;81;21106;-46
2022/10/06 01:45:54;;;;;;;3.95;0.50;;;;;;;12.00;100.00;100477.37;1722108;81;21413;-49
2022/10/06 01:48:21;;;;;;;2.27;0.60;;;;;;;12.00;100.00;100475.14;1726704;81;21063;-45
2022/10/06 01:50:48;;;;;;;1.07;0.50;;;;;;;11.97;100.00;100465.38;1717542;81;21080;-46
2022/10/06 01:53:15;;;;;;;2.42;0.40;;;;;;;11.95;100.00;100461.86;1720300;81;21833;-46
2022/10/06 01:55:41;;;;;;;2.90;0.65;;;;;;;11.92;100.00;100468.72;1726694;81;21072;-47
2022/10/06 01:58:09;;;;;;;2.62;0.40;;;;;;;11.90;100.00;100472.45;1717213;81;21087;-49
2022/10/06 02:00:37;;;;;;;2.10;0.47;;;;;;;11.88;100.00;100464.42;1718997;81;21065;-48
2022/10/06 02:03:03;;;;;;;4.75;0.60;;;;;;;11.88;100.00;100469.81;1721560;81;21158;-49
2022/10/06 02:05:30;;;;;;;1.25;0.40;;;;;;;11.89;100.00;100473.39;1727487;81;21850;-46
2022/10/06 02:07:57;;;;;;;5.78;0.60;;;;;;;11.88;100.00;100472.52;1727157;81;21286;-45
2022/10/06 02:10:23;;;;;;;1.70;0.50;;;;;;;11.87;100.00;100464.01;1721296;81;21029;-49
2022/10/06 02:12:52;;;;;;;0.75;0.57;;;;;;;11.88;100.00;100467.12;1720243;81;21536;-45
2022/10/06 02:15:20;;;;;;;1.47;0.60;;;;;;;11.87;100.00;100464.48;1718312;81;21048;-49
2022/10/06 02:17:48;;;;;;;1.90;0.60;;;;;;;11.85;100.00;100462.31;1720131;81;21718;-49
2022/10/06 02:20:15;;;;;;;5.95;0.60;;;;;;;11.83;100.00;100461.48;1721730;81;21631;-47
2022/10/06 02:22:43;;;;;;;2.50;0.42;;;;;;;11.77;100.00;100468.03;1717197;81;21079;-47
2022/10/06 02:25:11;;;;;;;1.22;0.50;;;;;;;11.77;100.00;100478.81;1729088;81;21060;-47
2022/10/06 02:27:38;;;;;;;2.15;0.40;;;;;;;11.75;100.00;100475.30;1719201;81;21088;-49
2022/10/06 02:30:06;;;;;;;4.40;0.50;;;;;;;11.72;100.00;100476.29;1722606;81;22968;-47
2022/10/06 02:32:37;;;;;;;2.55;0.50;;;;;;;11.69;100.00;100475.06;1727116;81;21079;-46
2022/10/06 02:35:05;;;;;;;2.87;0.50;;;;;;;11.68;100.00;100477.81;1723506;81;21088;-46
2022/10/06 02:37:32;;;;;;;4.53;0.60;;;;;;;11.65;100.00;100473.41;1721347;81;21088;-47
2022/10/06 02:40:00;;;;;;;1.57;0.50;;;;;;;11.63;100.00;100479.83;1726420;81;21001;-49
2022/10/06 02:42:27;;;;;;;1.87;0.70;;;;;;;11.60;100.00;100481.30;1732445;79;21781;-49
2022/10/06 02:44:53;;;;;;;3.10;0.50;;;;;;;11.58;100.00;100485.86;1739463;79;21064;-46
2022/10/06 02:47:21;;;;;;;2.00;0.70;;;;;;;11.56;100.00;100487.77;1742897;79;21037;-46
2022/10/06 02:49:47;;;;;;;1.12;0.60;;;;;;;11.52;100.00;100487.00;1739270;79;21744;-47
2022/10/06 02:52:15;;;;;;;1.62;0.50;;;;;;;11.51;100.00;100495.14;1736608;79;20997;-46
2022/10/06 02:54:41;;;;;;;2.30;0.47;;;;;;;11.48;100.00;100492.59;1739511;79;21767;-49
2022/10/06 02:57:08;;;;;;;1.20;0.50;;;;;;;11.45;100.00;100495.41;1739875;79;21401;-49
2022/10/06 02:59:35;;;;;;;1.42;0.40;;;;;;;11.42;100.00;100486.95;1742110;79;20989;-47
2022/10/06 03:02:02;;;;;;;2.17;0.50;;;;;;;11.42;100.00;100491.47;1709144;81;21028;-46
2022/10/06 03:04:29;;;;;;;3.12;0.50;;;;;;;11.40;100.00;100492.02;1743505;79;21307;-46
2022/10/06 03:06:56;;;;;;;1.82;0.60;;;;;;;11.37;100.00;100493.89;1744941;79;21865;-46
2022/10/06 03:09:24;;;;;;;2.25;0.65;;;;;;;11.34;100.00;100491.31;1750271;79;21331;-48
2022/10/06 03:11:52;;;;;;;1.75;0.60;;;;;;;11.31;100.00;100498.16;1741725;79;20978;-46
2022/10/06 03:14:24;;;;;;;2.37;0.60;;;;;;;11.28;100.00;100495.61;1740596;79;21435;-46
2022/10/06 03:16:51;;;;;;;0.72;0.50;;;;;;;11.23;100.00;100492.66;1741927;79;21479;-48
2022/10/06 03:19:22;;;;;;;11.78;0.57;;;;;;;11.19;100.00;100494.62;1741523;79;21806;-49
2022/10/06 03:21:48;;;;;;;3.77;0.50;;;;;;;11.14;100.00;100489.89;1734903;79;20993;-46
2022/10/06 03:24:15;;;;;;;5.60;0.72;;;;;;;11.10;100.00;100482.84;1737567;79;21469;-45
2022/10/06 03:26:46;;;;;;;1.50;0.50;;;;;;;11.07;100.00;100490.16;1743353;79;21119;-46
2022/10/06 03:29:14;;;;;;;0.70;0.50;;;;;;;11.03;100.00;100488.06;1741272;79;21130;-47
2022/10/06 03:31:43;;;;;;;2.47;0.57;;;;;;;11.00;100.00;100482.78;1741881;79;22522;-49
2022/10/06 03:34:09;;;;;;;2.75;0.50;;;;;;;10.98;100.00;100487.34;1720443;79;21708;-47
2022/10/06 03:36:36;;;;;;;2.62;0.82;;;;;;;10.94;100.00;100485.72;1742742;79;21229;-46
2022/10/06 03:39:03;;;;;;;3.33;0.60;;;;;;;10.91;100.00;100482.67;1740128;79;21371;-47
2022/10/06 03:41:33;;;;;;;1.00;0.55;;;;;;;10.88;100.00;100484.16;1719455;80;21057;-47
2022/10/06 03:44:01;;;;;;;3.40;0.70;;;;;;;10.85;100.00;100487.41;1746118;81;21843;-45
2022/10/06 03:46:32;;;;;;;0.98;0.60;;;;;;;10.79;100.00;100489.88;1736358;81;21374;-47
2022/10/06 03:48:59;;;;;;;1.30;0.53;;;;;;;10.75;100.00;100479.27;1742730;81;21056;-48
2022/10/06 03:51:32;;;;;;;1.72;0.68;;;;;;;10.72;100.00;100488.83;1737211;81;21064;-46
2022/10/06 03:53:59;;;;;;;2.12;0.70;;;;;;;10.69;100.00;100491.62;1736305;81;21068;-49
2022/10/06 03:56:31;;;;;;;3.12;0.50;;;;;;;10.65;100.00;100489.95;1737193;81;22271;-47
2022/10/06 03:59:03;;;;;;;2.33;0.60;;;;;;;10.63;100.00;100496.27;1741813;81;21045;-47
2022/10/06 04:01:32;;;;;;;6.72;0.60;;;;;;;10.61;100.00;100495.95;1737211;81;21139;-45
2022/10/06 04:04:00;;;;;;;4.92;0.62;;;;;;;10.59;100.00;100491.08;1736750;81;21843;-47
2022/10/06 04:06:29;;;;;;;1.70;0.60;;;;;;;10.59;100.00;100495.11;1737059;81;21075;-47
2022/10/06 04:08:55;;;;;;;1.30;0.90;;;;;;;10.58;100.00;100492.00;1742730;81;21908;-48
2022/10/06 04:11:25;;;;;;;3.50;0.80;;;;;;;10.58;100.00;100487.97;1744215;81;21131;-47
2022/10/06 04:13:59;;;;;;;2.00;0.60;;;;;;;10.57;100.00;100489.78;1736421;81;21005;-45
2022/10/06 04:16:28;;;;;;;5.55;0.70;;;;;;;10.56;100.00;100497.91;1736515;81;21103;-47
2022/10/06 04:18:59;;;;;;;5.10;0.80;;;;;;;10.54;100.00;100501.14;1736509;81;21049;-46
2022/10/06 04:21:27;;;;;;;2.98;0.60;;;;;;;10.53;100.00;100500.27;1724298;81;22478;-46
2022/10/06 04:23:56;;;;;;;4.28;0.62;;;;;;;10.51;100.00;100507.51;1740285;81;21115;-46
2022/10/06 04:26:26;;;;;;;4.03;0.80;;;;;;;10.51;100.00;100502.13;1740342;81;21079;-46
2022/10/06 04:28:53;;;;;;;3.87;0.60;;;;;;;10.51;100.00;100506.16;1741546;81;21111;-47
2022/10/06 04:31:23;;;;;;;4.58;0.55;;;;;;;10.49;100.00;100495.03;1742969;81;21005;-47
2022/10/06 04:33:53;;;;;;;2.85;0.70;;;;;;;10.47;100.00;100503.16;1740070;81;21404;-46
2022/10/06 04:36:23;;;;;;;1.80;0.60;;;;;;;10.47;100.00;100503.62;1739031;81;21060;-46
2022/10/06 04:38:57;;;;;;;3.22;0.70;;;;;;;10.48;100.00;100505.37;1734399;80;21373;-46
2022/10/06 04:41:27;;;;;;;3.62;0.80;;;;;;;10.49;100.00;100508.02;1765587;78;20989;-49
2022/10/06 04:43:54;;;;;;;3.62;0.85;;;;;;;10.49;100.00;100505.33;1765967;78;21036;-47
2022/10/06 04:46:21;;;;;;;5.35;1.05;;;;;;;10.51;100.00;100508.85;1764436;79;21903;-48
2022/10/06 04:48:52;;;;;;;3.62;0.80;;;;;;;10.52;100.00;100504.34;1763352;78;21123;-48
2022/10/06 04:51:20;;;;;;;4.70;1.30;;;;;;;10.51;100.00;100507.51;1764707;78;21073;-44
2022/10/06 04:53:47;;;;;;;1.57;0.70;;;;;;;10.50;100.00;100509.78;1760426;78;21111;-47
2022/10/06 04:56:19;;;;;;;4.10;0.70;;;;;;;10.51;100.00;100512.01;1763423;78;21079;-47
2022/10/06 04:58:48;;;;;;;4.20;0.78;;;;;;;10.49;100.00;100514.75;1766836;78;21949;-49
2022/10/06 05:01:25;;;;;;;5.80;0.70;;;;;;;10.50;100.00;100507.09;1762940;78;21052;-47
2022/10/06 05:03:54;;;;;;;1.30;0.68;;;;;;;10.54;100.00;100503.84;1758350;79;21029;-46
2022/10/06 05:06:37;;;;;;;4.30;0.80;;;;;;;10.58;100.00;100509.50;1761140;78;21057;-46
2022/10/06 05:09:07;;;;;;;2.15;0.65;;;;;;;10.63;100.00;100507.55;1768852;78;21574;-46
2022/10/06 05:11:34;;;;;;;1.47;0.62;;;;;;;10.75;100.00;100508.42;1771654;78;21842;-48
2022/10/06 05:14:03;;;;;;;1.70;0.70;;;;;;;10.86;100.00;100518.80;1768322;78;21589;-46
2022/10/06 05:16:32;;;;;;;1.92;0.70;;;;;;;10.98;100.00;100518.33;1773730;78;21072;-46
2022/10/06 05:18:59;;;;;;;7.67;1.22;;;;;;;11.11;100.00;100514.71;1764671;78;21029;-49
2022/10/06 05:21:29;;;;;;;4.75;0.78;;;;;;;11.24;100.00;100515.52;1760850;78;21669;-47
2022/10/06 05:23:57;;;;;;;3.75;0.80;;;;;;;11.37;100.00;100518.63;1760332;78;22794;-46
2022/10/06 05:26:26;;;;;;;2.22;0.70;;;;;;;11.51;100.00;100525.69;1761124;78;21103;-47
2022/10/06 05:28:53;;;;;;;2.50;1.02;;;;;;;11.65;100.00;100526.50;1769458;78;21049;-49
2022/10/06 05:31:27;;;;;;;3.22;0.60;;;;;;;11.79;100.00;100521.45;1761668;78;21031;-47
2022/10/06 05:33:55;;;;;;;1.60;0.70;;;;;;;11.92;100.00;100525.37;1769731;78;21046;-48
2022/10/06 05:36:24;;;;;;;3.25;0.70;;;;;;;12.07;100.00;100534.20;1760936;78;22802;-49
2022/10/06 05:38:52;;;;;;;2.55;0.88;;;;;;;12.20;100.00;100532.33;1761417;78;20986;-48
2022/10/06 05:41:30;;;;;;;2.50;0.80;;;;;;;12.33;100.00;100533.58;1763726;78;20989;-50
2022/10/06 05:43:59;;;;;;;5.28;0.90;;;;;;;12.41;100.00;100537.70;1759125;78;21040;-47
2022/10/06 05:46:28;;;;;;;3.25;0.80;;;;;;;12.50;100.00;100537.27;1762915;79;21449;-49
2022/10/06 05:49:00;;;;;;;2.90;0.78;;;;;;;12.57;100.00;100546.00;1757742;78;21045;-50
2022/10/06 05:51:30;;;;;;;1.92;0.80;;;;;;;12.60;100.00;100543.14;1762215;78;20974;-46
2022/10/06 05:53:59;;;;;;;1.98;0.80;;;;;;;12.60;100.00;100554.42;1762342;78;21064;-47
2022/10/06 05:56:29;;;;;;;2.95;0.62;;;;;;;12.55;100.00;100549.70;1759541;78;21499;-49
2022/10/06 05:58:56;;;;;;;2.72;0.70;;;;;;;12.47;100.00;100544.17;1764376;78;20981;-47
2022/10/06 06:01:32;;;;;;;1.15;0.53;;;;;;;12.47;100.00;100544.17;1764722;78;22476;-47
2022/10/06 06:04:02;;;;;;;3.72;0.57;;;;;;;12.47;100.00;100547.34;1763807;78;21543;-46
2022/10/06 06:06:43;;;;;;;3.77;0.60;;;;;;;12.48;100.00;100547.75;1762397;78;21028;-48
2022/10/06 06:09:14;;;;;;;5.20;0.60;;;;;;;12.51;100.00;100540.38;1765800;78;20996;-50
2022/10/06 06:11:44;;;;;;;0.80;0.60;;;;;;;12.58;100.00;100552.28;1762990;78;21479;-48
2022/10/06 06:14:14;;;;;;;4.33;0.60;;;;;;;12.63;100.00;100549.78;1761555;78;21883;-50
2022/10/06 06:16:41;;;;;;;2.02;0.65;;;;;;;12.72;100.00;100549.37;1761688;78;21029;-47
2022/10/06 06:19:09;;;;;;;4.22;0.57;;;;;;;12.78;100.00;100556.31;1762679;78;20999;-49
2022/10/06 06:21:38;;;;;;;2.85;0.60;;;;;;;12.85;100.00;100548.33;1764138;78;21448;-48
2022/10/06 06:24:05;;;;;;;1.67;0.53;;;;;;;12.88;100.00;100549.09;1760262;78;21078;-48
2022/10/06 06:26:35;;;;;;;0.60;0.50;;;;;;;12.97;100.00;100553.20;1758553;78;21879;-48
2022/10/06 06:29:02;;;;;;;3.77;0.50;;;;;;;12.97;100.00;100553.20;1761165;78;21050;-49
2022/10/06 06:31:34;;;;;;;0.72;0.42;;;;;;;13.01;100.00;100554.83;1765296;78;21052;-48
2022/10/06 06:34:03;;;;;;;1.07;0.60;;;;;;;13.06;100.00;100547.38;1763812;78;21052;-48
2022/10/06 06:36:35;;;;;;;6.50;0.70;;;;;;;13.11;100.00;100545.80;1757900;78;21079;-48
2022/10/06 06:39:07;;;;;;;5.07;0.60;;;;;;;13.16;100.00;100546.05;1759446;78;22555;-48
2022/10/06 06:41:37;;;;;;;4.15;0.70;;;;;;;13.22;100.00;100544.40;1758648;78;21379;-48
2022/10/06 06:44:07;;;;;;;4.95;0.60;;;;;;;13.29;100.00;100540.92;1759873;79;21495;-47
2022/10/06 06:46:38;;;;;;;5.45;0.60;;;;;;;13.37;100.00;100544.15;1756611;79;21064;-48
2022/10/06 06:49:06;;;;;;;1.17;0.50;;;;;;;13.44;100.00;100546.95;1753867;79;21087;-49
2022/10/06 06:51:43;;;;;;;1.55;0.50;;;;;;;13.50;100.00;100541.28;1759878;80;23000;-46
2022/10/06 06:54:10;;;;;;;2.50;0.60;;;;;;;13.56;100.00;100542.80;1758204;79;21056;-49
2022/10/06 06:56:40;;;;;;;2.35;0.60;;;;;;;13.62;100.00;100545.20;1761565;79;21044;-48
2022/10/06 06:59:12;;;;;;;2.15;0.50;;;;;;;13.71;100.00;100547.94;1767416;78;21063;-46
2022/10/06 07:01:44;;;;;;;0.85;0.50;;;;;;;13.78;100.00;100538.60;1766365;78;21082;-49
2022/10/06 07:04:13;;;;;;;3.58;0.60;;;;;;;13.85;100.00;100542.28;1742339;80;22260;-48
2022/10/06 07:06:41;;;;;;;1.27;0.60;;;;;;;13.93;100.00;100544.61;1745072;80;21529;-49
2022/10/06 07:09:09;;;;;;;2.40;0.60;;;;;;;14.00;100.00;100544.22;1742041;80;21078;-48
2022/10/06 07:11:38;;;;;;;1.90;0.60;;;;;;;14.08;100.00;100549.25;1769813;80;21693;-48
2022/10/06 07:14:11;;;;;;;2.22;0.50;;;;;;;14.16;100.00;100540.27;1761504;80;21567;-51
2022/10/06 07:26:15;;;;;;;1.53;0.50;;;;;;;14.42;100.00;100532.67;1795188;78;27252;-51
2022/10/06 07:28:42;;;;;;;2.98;0.60;;;;;;;14.47;98.33;100545.49;1745771;78;21445;-47
2022/10/06 07:31:09;;;;;;;1.55;0.60;;;;;;;14.51;98.97;100545.27;1771866;79;22765;-49
2022/10/06 07:33:35;;;;;;;1.95;0.50;;;;;;;14.55;99.43;100545.97;1774471;79;21057;-48
2022/10/06 07:36:04;;;;;;;1.82;0.70;;;;;;;14.58;99.75;100544.47;1775917;78;21135;-51
2022/10/06 07:38:31;;;;;;;3.58;0.53;;;;;;;14.61;100.00;100548.38;1750234;79;21062;-51
2022/10/06 07:40:58;;;;;;;1.80;0.50;;;;;;;14.66;100.00;100547.65;1769150;79;21559;-50
2022/10/06 07:43:26;;;;;;;1.62;0.70;;;;;;;14.73;100.00;100542.30;1775581;79;22618;-48
2022/10/06 07:45:55;;;;;;;1.82;0.62;;;;;;;14.81;100.00;100542.77;1746205;79;21686;-48
2022/10/06 07:48:26;;;;;;;2.65;0.80;;;;;;;14.86;100.00;100538.00;1770500;78;21123;-50
2022/10/06 07:51:00;;;;;;;3.95;0.60;;;;;;;14.92;100.00;100539.49;1771628;79;21120;-48
2022/10/06 07:53:28;;;;;;;2.83;0.57;;;;;;;14.97;100.00;100540.14;1772720;78;21057;-48
2022/10/06 07:56:14;;;;;;;3.50;0.53;;;;;;;14.98;100.00;100531.02;1773397;79;21906;-49
2022/10/06 07:58:42;;;;;;;5.60;0.50;;;;;;;15.01;100.00;100534.94;1773545;79;21052;-50
2022/10/06 08:01:11;;;;;;;1.22;0.50;;;;;;;15.07;100.00;100538.19;1767940;78;21118;-48
2022/10/06 08:03:39;;;;;;;2.52;0.80;;;;;;;15.17;100.00;100530.42;1777086;78;21499;-49
2022/10/06 08:06:14;;;;;;;1.77;0.57;;;;;;;15.27;100.00;100530.80;1775319;78;21052;-48
2022/10/06 08:08:39;;;;;;;3.95;0.65;;;;;;;15.35;100.00;100525.83;1771327;78;21775;-49
2022/10/06 08:11:06;;;;;;;3.30;0.50;;;;;;;15.46;100.00;100533.77;1775184;78;21061;-50
2022/10/06 08:13:39;;;;;;;1.12;0.70;;;;;;;15.58;100.00;100530.86;1769361;78;21069;-49
2022/10/06 08:16:11;;;;;;;3.77;0.75;;;;;;;15.69;100.00;100530.27;1771278;78;21559;-48
2022/10/06 08:18:38;;;;;;;1.47;0.50;;;;;;;15.78;100.00;100526.55;1770038;78;21076;-51
2022/10/06 08:21:13;;;;;;;6.70;0.60;;;;;;;15.83;100.00;100528.50;1770549;78;21818;-50
2022/10/06 08:23:41;;;;;;;1.35;0.60;;;;;;;15.84;100.00;100525.30;1776125;78;21060;-50
2022/10/06 08:26:10;;;;;;;1.67;0.50;;;;;;;15.85;100.00;100527.94;1761290;78;21697;-48
2022/10/06 08:28:38;;;;;;;1.27;0.50;;;;;;;15.93;100.00;100526.62;1760740;80;21502;-48
2022/10/06 08:31:07;;;;;;;3.80;0.80;;;;;;;15.99;100.00;100518.14;1763126;79;21033;-49
2022/10/06 08:33:37;;;;;;;2.95;0.50;;;;;;;16.05;100.00;100514.57;1760234;79;22568;-49
2022/10/06 08:36:08;;;;;;;2.67;0.70;;;;;;;16.06;100.00;100516.33;1761999;79;21472;-48
2022/10/06 08:38:36;;;;;;;4.25;1.12;;;;;;;16.06;100.00;100518.16;1761886;80;21069;-48
2022/10/06 08:41:32;;;;;;;1.27;0.60;;;;;;;16.09;100.00;100512.53;1760858;79;20947;-48
2022/10/06 08:48:47;;;;;;;7.55;0.70;;;;;;;16.25;100.00;100506.09;1773064;78;29091;-47
2022/10/06 08:51:43;;;;;;;2.65;0.60;;;;;;;16.26;95.29;100514.64;1741087;80;21045;-48
2022/10/06 08:54:24;;;;;;;3.55;0.72;;;;;;;16.35;95.69;100509.62;1713078;80;21957;-51
2022/10/06 08:57:08;;;;;;;4.42;0.57;;;;;;;16.43;95.94;100518.19;1733264;80;21060;-49
2022/10/06 08:59:36;;;;;;;1.87;0.47;;;;;;;16.51;96.14;100515.40;1709059;81;21109;-48
2022/10/06 09:02:06;;;;;;;3.98;0.60;;;;;;;16.59;96.27;100508.14;1705352;81;21116;-48
2022/10/06 09:04:33;;;;;;;5.83;0.50;;;;;;;16.67;96.41;100503.66;1706552;81;22253;-50
2022/10/06 09:07:14;;;;;;;5.33;0.70;;;;;;;16.71;96.52;100508.80;1705765;81;21990;-48
2022/10/06 09:10:29;;;;;;;1.82;0.50;;;;;;;16.76;96.62;100513.97;1677883;83;21072;-51
2022/10/06 09:13:06;;;;;;;2.35;0.60;;;;;;;16.77;96.71;100511.13;1682089;83;21057;-48
2022/10/06 09:15:48;;;;;;;2.98;0.65;;;;;;;16.75;96.85;100508.13;1646563;85;21386;-48
2022/10/06 09:18:29;;;;;;;4.30;0.60;;;;;;;16.73;97.01;100514.14;1671821;84;21094;-48
2022/10/06 09:21:05;;;;;;;5.20;0.70;;;;;;;16.75;97.07;100515.80;1673907;83;21837;-50
2022/10/06 09:23:49;;;;;;;1.67;0.47;;;;;;;16.82;97.08;100517.17;1672598;83;21096;-48
2022/10/06 09:26:21;;;;;;;2.85;0.57;;;;;;;16.90;97.10;100512.61;1676731;83;21048;-48
2022/10/06 09:28:50;;;;;;;1.50;0.55;;;;;;;17.00;97.09;100520.59;1672555;83;21156;-49
2022/10/06 09:31:24;;;;;;;1.62;0.80;;;;;;;17.07;97.11;100504.27;1677836;83;21239;-50
2022/10/06 09:34:03;;;;;;;0.80;0.55;;;;;;;17.17;97.07;100509.53;1670395;83;22683;-51
2022/10/06 09:36:28;;;;;;;3.17;0.70;;;;;;;17.25;97.05;100503.11;1648304;83;21079;-48
2022/10/06 09:38:56;;;;;;;1.30;0.47;;;;;;;17.33;97.06;100504.84;1675533;83;21052;-49
2022/10/06 09:41:33;;;;;;;3.08;0.50;;;;;;;17.39;97.06;100504.45;1661141;84;21484;-50
2022/10/06 09:44:03;;;;;;;2.02;0.35;;;;;;;17.43;97.07;100508.34;1663607;84;21054;-49
2022/10/06 09:46:38;;;;;;;1.25;0.47;;;;;;;17.46;97.10;100514.93;1664723;84;22559;-47
2022/10/06 09:49:06;;;;;;;2.87;0.50;;;;;;;17.48;97.14;100508.42;1652229;84;21054;-47
2022/10/06 09:51:36;;;;;;;2.22;0.50;;;;;;;17.52;97.12;100504.55;1650318;85;21408;-49
2022/10/06 09:54:10;;;;;;;2.30;0.60;;;;;;;17.57;97.14;100506.47;1653306;85;21094;-51
2022/10/06 09:56:44;;;;;;;1.98;0.50;;;;;;;17.63;97.11;100507.45;1654402;85;21099;-49
2022/10/06 09:59:30;;;;;;;3.25;0.60;;;;;;;17.70;97.09;100510.16;1665888;84;22985;-52
2022/10/06 10:01:58;;;;;;;2.45;0.40;;;;;;;17.75;97.13;100505.78;1660307;84;21043;-50
2022/10/06 10:04:29;;;;;;;0.80;0.45;;;;;;;17.80;97.10;100510.91;1661932;84;21577;-47
2022/10/06 10:07:15;;;;;;;7.28;0.70;;;;;;;17.82;97.13;100507.12;1659913;84;21081;-50
2022/10/06 10:09:42;;;;;;;2.50;0.50;;;;;;;17.86;97.13;100513.25;1659197;84;22449;-49
2022/10/06 10:12:29;;;;;;;0.85;0.40;;;;;;;17.89;97.14;100504.86;1660896;84;21843;-51
2022/10/06 10:14:57;;;;;;;1.47;0.50;;;;;;;17.91;97.18;100509.72;1659728;84;21105;-49
2022/10/06 10:17:44;;;;;;;1.95;0.62;;;;;;;17.93;97.18;100510.02;1656754;84;21243;-48
2022/10/06 10:20:26;;;;;;;5.90;0.30;;;;;;;17.97;97.20;100509.30;1660836;84;21100;-51
2022/10/06 10:22:58;;;;;;;1.87;0.50;;;;;;;18.01;97.17;100499.48;1659467;84;21070;-49
2022/10/06 10:25:45;;;;;;;2.60;0.45;;;;;;;18.07;97.16;100499.55;1659127;84;21970;-49
2022/10/06 10:28:58;;;;;;;2.77;0.30;;;;;;;18.11;97.16;100499.25;1661121;84;21059;-51
2022/10/06 10:31:50;;;;;;;1.17;0.50;;;;;;;18.17;97.13;100499.31;1704570;81;21227;-49
2022/10/06 10:34:51;;;;;;;0.82;0.40;;;;;;;18.24;97.06;100498.41;1702141;81;21026;-47
2022/10/06 10:37:29;;;;;;;2.58;0.50;;;;;;;18.24;97.10;100493.83;1653512;81;21670;-50
2022/10/06 10:40:01;;;;;;;1.95;0.40;;;;;;;18.24;97.12;100494.31;1672867;83;21797;-48
2022/10/06 10:42:48;;;;;;;4.25;0.30;;;;;;;18.24;97.14;100495.19;1649887;83;21002;-50
2022/10/06 10:45:33;;;;;;;3.40;0.53;;;;;;;18.24;97.18;100491.10;1674513;83;21050;-49
2022/10/06 10:48:02;;;;;;;7.12;0.50;;;;;;;18.26;97.19;100494.61;1673243;83;21076;-50
2022/10/06 10:50:33;;;;;;;0.80;0.40;;;;;;;18.30;97.19;100491.16;1672179;83;21556;-48
2022/10/06 10:53:27;;;;;;;2.40;0.45;;;;;;;18.32;97.21;100490.58;1669670;83;21775;-49
2022/10/06 10:55:53;;;;;;;1.57;0.42;;;;;;;18.34;97.22;100489.98;1669466;83;21982;-50
2022/10/06 10:58:35;;;;;;;2.58;0.50;;;;;;;18.34;97.22;100488.14;1705626;81;21084;-46
2022/10/06 11:01:21;;;;;;;1.27;0.50;;;;;;;18.37;97.24;100483.81;1701279;81;21180;-49
2022/10/06 11:03:55;;;;;;;6.12;0.70;;;;;;;18.39;97.24;100491.89;1698565;81;20987;-49
2022/10/06 11:06:46;;;;;;;3.20;0.55;;;;;;;18.40;97.26;100483.63;1702989;81;21838;-50
2022/10/06 11:09:18;;;;;;;1.35;0.40;;;;;;;18.42;97.27;100483.03;1703202;81;20957;-48
2022/10/06 11:12:14;;;;;;;1.10;0.40;;;;;;;18.44;97.27;100487.02;1666532;83;20986;-49
2022/10/06 11:14:58;;;;;;;1.25;0.42;;;;;;;18.46;97.28;100480.95;1651965;83;21069;-51
2022/10/06 11:17:43;;;;;;;;;;;;;;;18.49;97.29;100475.30;1669923;83;21587;-51
2022/10/06 11:20:41;;;;;;;1.72;0.40;;;;;;;18.52;97.27;100474.61;1650702;84;21832;-50
2022/10/06 11:23:37;;;;;;;1.70;0.70;;;;;;;18.56;97.28;100475.25;1660053;84;21069;-51
2022/10/06 11:26:39;;;;;;;3.42;0.50;;;;;;;18.58;97.26;100466.51;1657437;84;21070;-52
2022/10/06 11:29:24;;;;;;;2.27;0.50;;;;;;;18.62;97.26;100467.19;1657834;84;21483;-50
2022/10/06 11:32:13;;;;;;;0.90;0.50;;;;;;;18.65;97.25;100464.22;1654517;84;28174;-52
2022/10/06 11:34:41;;;;;;;2.27;0.50;;;;;;;18.68;97.26;100460.80;1659141;84;22500;-49
2022/10/06 11:37:39;;;;;;;2.08;0.50;;;;;;;18.71;97.26;100467.90;1658201;84;21068;-50
2022/10/06 11:40:28;;;;;;;3.02;0.53;;;;;;;18.73;97.27;100463.19;1660876;84;21662;-50
2022/10/06 11:43:16;;;;;;;4.60;0.55;;;;;;;18.75;97.25;100460.74;1657620;84;21494;-49
2022/10/06 11:45:58;;;;;;;1.25;0.50;;;;;;;18.77;97.27;100466.09;1659191;84;21101;-49
2022/10/06 11:48:28;;;;;;;1.07;0.50;;;;;;;18.78;97.26;100470.08;1659262;84;23009;-48
2022/10/06 11:50:58;;;;;;;5.62;0.80;;;;;;;18.78;97.30;100464.63;1659609;84;21102;-50
2022/10/06 11:53:38;;;;;;;0.72;0.50;;;;;;;18.78;97.33;100465.11;1659121;84;21085;-51
2022/10/06 11:56:22;;;;;;;1.25;0.53;;;;;;;18.76;97.36;100466.58;1658476;84;21592;-49